Sir Albert — 9HA2536 — position and weather

sailwx.info

Track history (hours):
 
Tides and Currents Weather Stations Pressure Air Temp Water Temp Dewpoint Dewpoint Depression Visibility Wind Speed Wind Dir Waves Ship Positions

Sir Albert

Last reported at 2015-Aug-31 16:33 UTC. Time now 2015-Aug-31 21:47 UTC.
Position N 55°40' E 019°60'.

Length 132 m; draft 5.6 m.

Type: Cargo ship. MMSI: 248832000.

Date/timePositionNaut miles runAvg speedWind from/ knotsBaromVisibWave heightAir tempDewpointWater temp
2015-Aug-31 16:33N 55°40' E 019°60'1211.8
2015-Aug-31 15:33N 55°39' E 019°39'1211.9
2015-Aug-31 14:34N 55°37' E 019°18'1211.9
2015-Aug-31 13:33N 55°36' E 018°57'1211.7
2015-Aug-31 12:34N 55°34' E 018°37'1211.6
2015-Aug-31 11:34N 55°32' E 018°16'1211.7
2015-Aug-31 10:33N 55°32' E 017°56'1411.6
2015-Aug-31 09:23N 55°31' E 017°32'1011.5
2015-Aug-31 08:29N 55°30' E 017°13'1011.4
2015-Aug-31 07:33N 55°29' E 016°55'2311.6
2015-Aug-31 05:33N 55°28' E 016°14'1211.7
2015-Aug-31 04:30N 55°27' E 015°52'1111.7
2015-Aug-31 03:33N 55°26' E 015°33'1211.7
2015-Aug-31 02:33N 55°25' E 015°12'1211.7
2015-Aug-31 01:33N 55°24' E 014°52'1111.3
2015-Aug-31 00:33N 55°19' E 014°34'1212.2
2015-Aug-30 23:34N 55°10' E 014°20'1211.9
2015-Aug-30 22:34N 55°01' E 014°07'1211.9
2015-Aug-30 21:34N 54°57' E 013°47'1211.8
2015-Aug-30 20:34N 54°54' E 013°27'1211.8
2015-Aug-30 19:33N 54°50' E 013°08'1211.7
2015-Aug-30 18:33N 54°46' E 012°49'1211.7
2015-Aug-30 17:33N 54°40' E 012°31'1111.5
2015-Aug-30 16:33N 54°32' E 012°17'1010.2
2015-Aug-30 15:33N 54°25' E 012°04'1212.2
2015-Aug-30 14:33N 54°26' E 011°43'1312.7
2015-Aug-30 13:33N 54°31' E 011°24'1312.9
2015-Aug-30 12:33N 54°37' E 011°04'1111.1
2015-Aug-30 11:33N 54°46' E 010°52'1312.8
2015-Aug-30 10:33N 54°58' E 010°59'1312.8
2015-Aug-30 09:33N 55°11' E 011°04'1212.0
2015-Aug-30 08:33N 55°23' E 011°01'1312.6
2015-Aug-30 07:29N 55°34' E 010°50'1412.1
2015-Aug-30 06:18N 55°49' E 010°48'5611.8
2015-Aug-30 01:33N 56°36' E 011°42'1111.4
2015-Aug-30 00:33N 56°46' E 011°51'1211.9
2015-Aug-29 23:33N 56°57' E 011°44'1211.5
2015-Aug-29 22:33N 57°08' E 011°36'1111.4
2015-Aug-29 21:33N 57°19' E 011°29'1111.2
2015-Aug-29 20:33N 57°29' E 011°20'1211.9
2015-Aug-29 19:33N 57°34' E 010°60'1211.7
2015-Aug-29 18:33N 57°39' E 010°40'2 2.1
2015-Aug-29 17:24N 57°40' E 010°36'0 0.1
2015-Aug-29 16:33N 57°40' E 010°36'4 4.4
2015-Aug-29 15:33N 57°41' E 010°43'9 9.2
2015-Aug-29 14:33N 57°48' E 010°31'1413.3
2015-Aug-29 13:32N 57°47' E 010°06'26512.4
2015-Aug-28 16:07N 54°21' E 005°07'1012.4
2015-Aug-28 15:17N 54°12' E 004°59'912.3
2015-Aug-28 14:33N 54°03' E 004°58'1212.2
2015-Aug-28 13:33N 53°52' E 004°53'1212.0
2015-Aug-28 12:32N 53°40' E 004°50'1111.7
2015-Aug-28 11:33N 53°29' E 004°44'1211.6
2015-Aug-28 10:33N 53°18' E 004°36'1411.5
2015-Aug-28 09:21N 53°06' E 004°26'911.4
2015-Aug-28 08:33N 52°58' E 004°19'1111.2
2015-Aug-28 07:33N 52°48' E 004°10'1111.1
2015-Aug-28 06:33N 52°39' E 003°58'1411.4
2015-Aug-28 05:17N 52°29' E 003°41'7512.8
2015-Aug-27 23:27N 51°33' E 002°21'1213.5
2015-Aug-27 22:34N 51°23' E 002°12'1313.5
2015-Aug-27 21:33N 51°12' E 001°59'1010.4
2015-Aug-27 20:33N 51°04' E 001°48'0 0.1
2015-Aug-27 19:33N 51°04' E 001°48'0 0.1
2015-Aug-27 18:33N 51°04' E 001°48'0 0.1
2015-Aug-27 17:33N 51°04' E 001°48'0 0.1
2015-Aug-27 16:33N 51°04' E 001°48'0 0.1
2015-Aug-27 15:33N 51°04' E 001°48'0 0.0
2015-Aug-27 14:33N 51°04' E 001°48'0 0.3
2015-Aug-27 13:33N 51°04' E 001°48'0 0.0
2015-Aug-27 12:33N 51°04' E 001°48'0 0.0
2015-Aug-27 11:33N 51°04' E 001°48'0 0.0
2015-Aug-27 10:33N 51°04' E 001°48'0 0.0
2015-Aug-27 09:33N 51°04' E 001°48'0 0.0
2015-Aug-27 08:34N 51°04' E 001°48'0 0.0
2015-Aug-27 07:33N 51°04' E 001°48'0 0.0
2015-Aug-27 06:33N 51°04' E 001°48'0 0.2
2015-Aug-27 05:33N 51°04' E 001°47'0 0.0
2015-Aug-27 04:33N 51°04' E 001°47'0 0.1
2015-Aug-27 03:33N 51°04' E 001°48'0 0.1
2015-Aug-27 02:33N 51°04' E 001°48'0 0.0
2015-Aug-27 01:34N 51°04' E 001°48'0 0.0
2015-Aug-27 00:33N 51°04' E 001°48'0 0.0
2015-Aug-26 23:33N 51°04' E 001°48'0 0.0
2015-Aug-26 22:33N 51°04' E 001°48'0 0.0
2015-Aug-26 21:33N 51°04' E 001°48'0 0.0
2015-Aug-26 20:33N 51°04' E 001°48'0 0.0
2015-Aug-26 19:33N 51°04' E 001°48'0 0.0
2015-Aug-26 18:33N 51°04' E 001°48'0 0.0
2015-Aug-26 17:33N 51°04' E 001°48'0 0.0
2015-Aug-26 16:33N 51°04' E 001°48'0 0.1
2015-Aug-26 15:33N 51°04' E 001°48'0 0.1
2015-Aug-26 14:33N 51°04' E 001°48'0 0.0
2015-Aug-26 13:33N 51°04' E 001°48'0 0.0
2015-Aug-26 12:33N 51°04' E 001°48'0 0.0
2015-Aug-26 11:33N 51°04' E 001°48'0 0.0
2015-Aug-26 10:33N 51°04' E 001°48'0 0.0
2015-Aug-26 09:33N 51°04' E 001°48'0 0.0
2015-Aug-26 08:33N 51°04' E 001°48'0 0.0
2015-Aug-26 07:33N 51°04' E 001°48'0 0.0
2015-Aug-26 06:33N 51°04' E 001°48'0 0.0
2015-Aug-26 05:33N 51°04' E 001°48'0 0.0
2015-Aug-26 04:33N 51°04' E 001°48'0 0.0
2015-Aug-26 03:33N 51°04' E 001°48'0 0.0
2015-Aug-26 02:33N 51°04' E 001°48'0 0.0
2015-Aug-26 01:33N 51°04' E 001°48'0 0.0
2015-Aug-26 00:33N 51°04' E 001°48'0 0.0
2015-Aug-25 23:33N 51°04' E 001°48'0 0.0
2015-Aug-25 22:33N 51°04' E 001°48'0 0.0
2015-Aug-25 21:34N 51°04' E 001°48'0 0.0
2015-Aug-25 20:33N 51°04' E 001°48'0 0.0
2015-Aug-25 19:33N 51°04' E 001°48'0 0.0
2015-Aug-25 18:33N 51°04' E 001°48'0 0.0
2015-Aug-25 17:33N 51°04' E 001°48'0 0.0
2015-Aug-25 16:33N 51°04' E 001°47'0 0.1
2015-Aug-25 15:33N 51°04' E 001°47'0 0.1
2015-Aug-25 14:33N 51°04' E 001°47'0 0.1
2015-Aug-25 13:33N 51°04' E 001°47'0 0.0
2015-Aug-25 12:33N 51°04' E 001°47'0 0.0
2015-Aug-25 11:33N 51°04' E 001°47'0 0.0
2015-Aug-25 10:33N 51°04' E 001°48'0 0.0
2015-Aug-25 09:33N 51°04' E 001°47'0 0.0
2015-Aug-25 08:33N 51°04' E 001°48'0 0.0
2015-Aug-25 07:33N 51°04' E 001°48'0 0.0
2015-Aug-25 06:34N 51°04' E 001°48'0 0.0
2015-Aug-25 05:33N 51°04' E 001°48'0 0.0
2015-Aug-25 04:33N 51°04' E 001°48'0 0.0
2015-Aug-25 03:33N 51°04' E 001°48'0 0.0
2015-Aug-25 02:33N 51°04' E 001°48'0 0.0
2015-Aug-25 01:33N 51°04' E 001°48'0 0.0
2015-Aug-25 00:33N 51°04' E 001°48'0 0.0
2015-Aug-24 23:33N 51°04' E 001°47'0 0.0
2015-Aug-24 22:33N 51°04' E 001°48'0 0.0
2015-Aug-24 21:33N 51°04' E 001°48'0 0.0
2015-Aug-24 20:33N 51°04' E 001°47'0 0.1
2015-Aug-24 19:33N 51°04' E 001°47'0 0.0
2015-Aug-24 18:33N 51°04' E 001°47'0 0.0
2015-Aug-24 17:33N 51°04' E 001°47'0 0.0
2015-Aug-24 16:33N 51°04' E 001°47'0 0.1
2015-Aug-24 15:33N 51°04' E 001°47'0 0.1
2015-Aug-24 14:33N 51°04' E 001°47'0 0.0
2015-Aug-24 13:33N 51°04' E 001°47'0 0.0
2015-Aug-24 12:33N 51°04' E 001°47'0 0.0
2015-Aug-24 11:33N 51°04' E 001°47'0 0.0
2015-Aug-24 10:33N 51°04' E 001°47'0 0.0
2015-Aug-24 09:33N 51°04' E 001°47'0 0.1
2015-Aug-24 08:33N 51°04' E 001°47'0 0.0
2015-Aug-24 07:33N 51°04' E 001°47'0 0.0
2015-Aug-24 06:33N 51°04' E 001°47'0 0.0
2015-Aug-24 05:33N 51°04' E 001°47'0 0.0
2015-Aug-24 04:33N 51°04' E 001°47'0 0.1
2015-Aug-24 03:33N 51°04' E 001°47'0 0.1
2015-Aug-24 02:33N 51°04' E 001°47'0 0.0
2015-Aug-24 01:33N 51°04' E 001°47'0 0.0
2015-Aug-24 00:33N 51°04' E 001°47'0 0.0
2015-Aug-23 23:33N 51°04' E 001°47'0 0.2
2015-Aug-23 22:33N 51°04' E 001°47'0 0.1
2015-Aug-23 21:34N 51°04' E 001°47'0 0.0
2015-Aug-23 20:33N 51°04' E 001°47'0 0.0
2015-Aug-23 19:34N 51°04' E 001°47'0 0.0
2015-Aug-23 18:33N 51°04' E 001°47'0 0.0
2015-Aug-23 17:33N 51°04' E 001°47'0 0.0
2015-Aug-23 16:33N 51°04' E 001°47'0 0.0
2015-Aug-23 15:33N 51°04' E 001°47'0 0.0
2015-Aug-23 14:33N 51°04' E 001°47'0 0.2
2015-Aug-23 13:33N 51°04' E 001°47'0 0.0
2015-Aug-23 12:33N 51°04' E 001°47'0 0.0
2015-Aug-23 11:33N 51°04' E 001°47'0 0.0
2015-Aug-23 10:33N 51°04' E 001°47'0 0.0
2015-Aug-23 09:33N 51°04' E 001°47'0 0.0
2015-Aug-23 08:34N 51°04' E 001°47'0 0.0
2015-Aug-23 07:33N 51°04' E 001°47'0 0.1
2015-Aug-23 06:33N 51°04' E 001°47'0 0.0
2015-Aug-23 05:33N 51°04' E 001°47'0 0.0
2015-Aug-23 04:33N 51°04' E 001°47'0 0.0
2015-Aug-23 03:33N 51°04' E 001°47'0 0.1
2015-Aug-23 02:33N 51°04' E 001°47'0 0.1
2015-Aug-23 01:33N 51°04' E 001°47'0 0.0
2015-Aug-23 00:33N 51°04' E 001°47'0 0.0
2015-Aug-22 23:33N 51°04' E 001°47'0 0.0
2015-Aug-22 22:33N 51°04' E 001°47'0 0.0
2015-Aug-22 21:33N 51°04' E 001°47'0 0.0
2015-Aug-22 20:33N 51°04' E 001°47'0 0.1
2015-Aug-22 19:33N 51°04' E 001°47'0 0.1
2015-Aug-22 18:33N 51°04' E 001°47'0 0.0
2015-Aug-22 17:33N 51°04' E 001°47'0 0.0
2015-Aug-22 16:33N 51°04' E 001°47'0 0.0
2015-Aug-22 15:33N 51°04' E 001°47'0 0.1
2015-Aug-22 14:33N 51°04' E 001°47'0 0.1
2015-Aug-22 13:33N 51°04' E 001°47'0 0.0
2015-Aug-22 12:33N 51°04' E 001°47'0 0.0
2015-Aug-22 11:33N 51°04' E 001°47'0 0.0
2015-Aug-22 10:33N 51°04' E 001°47'0 0.0
2015-Aug-22 09:34N 51°04' E 001°47'0 0.0
2015-Aug-22 08:33N 51°04' E 001°47'0 0.0
2015-Aug-22 07:33N 51°04' E 001°47'0 0.1
2015-Aug-22 06:33N 51°04' E 001°47'0 0.0
2015-Aug-22 05:33N 51°04' E 001°47'0 0.0
2015-Aug-22 04:33N 51°04' E 001°47'0 0.0
2015-Aug-22 03:33N 51°04' E 001°47'0 0.0
2015-Aug-22 02:33N 51°04' E 001°47'0 0.1
2015-Aug-22 01:33N 51°04' E 001°47'0 0.1
2015-Aug-22 00:33N 51°04' E 001°47'0 0.0
2015-Aug-21 23:33N 51°04' E 001°47'0 0.0
2015-Aug-21 22:33N 51°04' E 001°47'0 0.0
2015-Aug-21 21:33N 51°04' E 001°47'0 0.0
2015-Aug-21 20:33N 51°04' E 001°47'0 0.0
2015-Aug-21 19:34N 51°04' E 001°47'0 0.1
2015-Aug-21 18:33N 51°04' E 001°47'0 0.0
2015-Aug-21 17:33N 51°04' E 001°47'0 0.0
2015-Aug-21 16:33N 51°04' E 001°47'  
Track history (hours):
 
Tides and Currents Weather Stations Pressure Air Temp Water Temp Dewpoint Dewpoint Depression Visibility Wind Speed Wind Dir Waves Ship Positions

Sir Albert

Last reported at 2015-Aug-31 16:33 UTC. Time now 2015-Aug-31 21:47 UTC.
Position N 55°40' E 019°60'.

Length 132 m; draft 5.6 m.

Type: Cargo ship. MMSI: 248832000.

Date/timePositionNaut miles runAvg speedWind from/ knotsBaromVisibWave heightAir tempDewpointWater temp
2015-Aug-31 16:33N 55°40' E 019°60'1211.8
2015-Aug-31 15:33N 55°39' E 019°39'1211.9
2015-Aug-31 14:34N 55°37' E 019°18'1211.9
2015-Aug-31 13:33N 55°36' E 018°57'1211.7
2015-Aug-31 12:34N 55°34' E 018°37'1211.6
2015-Aug-31 11:34N 55°32' E 018°16'1211.7
2015-Aug-31 10:33N 55°32' E 017°56'1411.6
2015-Aug-31 09:23N 55°31' E 017°32'1011.5
2015-Aug-31 08:29N 55°30' E 017°13'1011.4
2015-Aug-31 07:33N 55°29' E 016°55'2311.6
2015-Aug-31 05:33N 55°28' E 016°14'1211.7
2015-Aug-31 04:30N 55°27' E 015°52'1111.7
2015-Aug-31 03:33N 55°26' E 015°33'1211.7
2015-Aug-31 02:33N 55°25' E 015°12'1211.7
2015-Aug-31 01:33N 55°24' E 014°52'1111.3
2015-Aug-31 00:33N 55°19' E 014°34'1212.2
2015-Aug-30 23:34N 55°10' E 014°20'1211.9
2015-Aug-30 22:34N 55°01' E 014°07'1211.9
2015-Aug-30 21:34N 54°57' E 013°47'1211.8
2015-Aug-30 20:34N 54°54' E 013°27'1211.8
2015-Aug-30 19:33N 54°50' E 013°08'1211.7
2015-Aug-30 18:33N 54°46' E 012°49'1211.7
2015-Aug-30 17:33N 54°40' E 012°31'1111.5
2015-Aug-30 16:33N 54°32' E 012°17'1010.2
2015-Aug-30 15:33N 54°25' E 012°04'1212.2
2015-Aug-30 14:33N 54°26' E 011°43'1312.7
2015-Aug-30 13:33N 54°31' E 011°24'1312.9
2015-Aug-30 12:33N 54°37' E 011°04'1111.1
2015-Aug-30 11:33N 54°46' E 010°52'1312.8
2015-Aug-30 10:33N 54°58' E 010°59'1312.8
2015-Aug-30 09:33N 55°11' E 011°04'1212.0
2015-Aug-30 08:33N 55°23' E 011°01'1312.6
2015-Aug-30 07:29N 55°34' E 010°50'1412.1
2015-Aug-30 06:18N 55°49' E 010°48'5611.8
2015-Aug-30 01:33N 56°36' E 011°42'1111.4
2015-Aug-30 00:33N 56°46' E 011°51'1211.9
2015-Aug-29 23:33N 56°57' E 011°44'1211.5
2015-Aug-29 22:33N 57°08' E 011°36'1111.4
2015-Aug-29 21:33N 57°19' E 011°29'1111.2
2015-Aug-29 20:33N 57°29' E 011°20'1211.9
2015-Aug-29 19:33N 57°34' E 010°60'1211.7
2015-Aug-29 18:33N 57°39' E 010°40'2 2.1
2015-Aug-29 17:24N 57°40' E 010°36'0 0.1
2015-Aug-29 16:33N 57°40' E 010°36'4 4.4
2015-Aug-29 15:33N 57°41' E 010°43'9 9.2
2015-Aug-29 14:33N 57°48' E 010°31'1413.3
2015-Aug-29 13:32N 57°47' E 010°06'26512.4
2015-Aug-28 16:07N 54°21' E 005°07'1012.4
2015-Aug-28 15:17N 54°12' E 004°59'912.3
2015-Aug-28 14:33N 54°03' E 004°58'1212.2
2015-Aug-28 13:33N 53°52' E 004°53'1212.0
2015-Aug-28 12:32N 53°40' E 004°50'1111.7
2015-Aug-28 11:33N 53°29' E 004°44'1211.6
2015-Aug-28 10:33N 53°18' E 004°36'1411.5
2015-Aug-28 09:21N 53°06' E 004°26'911.4
2015-Aug-28 08:33N 52°58' E 004°19'1111.2
2015-Aug-28 07:33N 52°48' E 004°10'1111.1
2015-Aug-28 06:33N 52°39' E 003°58'1411.4
2015-Aug-28 05:17N 52°29' E 003°41'7512.8
2015-Aug-27 23:27N 51°33' E 002°21'1213.5
2015-Aug-27 22:34N 51°23' E 002°12'1313.5
2015-Aug-27 21:33N 51°12' E 001°59'1010.4
2015-Aug-27 20:33N 51°04' E 001°48'0 0.1
2015-Aug-27 19:33N 51°04' E 001°48'0 0.1
2015-Aug-27 18:33N 51°04' E 001°48'0 0.1
2015-Aug-27 17:33N 51°04' E 001°48'0 0.1
2015-Aug-27 16:33N 51°04' E 001°48'0 0.1
2015-Aug-27 15:33N 51°04' E 001°48'0 0.0
2015-Aug-27 14:33N 51°04' E 001°48'0 0.3
2015-Aug-27 13:33N 51°04' E 001°48'0 0.0
2015-Aug-27 12:33N 51°04' E 001°48'0 0.0
2015-Aug-27 11:33N 51°04' E 001°48'0 0.0
2015-Aug-27 10:33N 51°04' E 001°48'0 0.0
2015-Aug-27 09:33N 51°04' E 001°48'0 0.0
2015-Aug-27 08:34N 51°04' E 001°48'0 0.0
2015-Aug-27 07:33N 51°04' E 001°48'0 0.0
2015-Aug-27 06:33N 51°04' E 001°48'0 0.2
2015-Aug-27 05:33N 51°04' E 001°47'0 0.0
2015-Aug-27 04:33N 51°04' E 001°47'0 0.1
2015-Aug-27 03:33N 51°04' E 001°48'0 0.1
2015-Aug-27 02:33N 51°04' E 001°48'0 0.0
2015-Aug-27 01:34N 51°04' E 001°48'0 0.0
2015-Aug-27 00:33N 51°04' E 001°48'0 0.0
2015-Aug-26 23:33N 51°04' E 001°48'0 0.0
2015-Aug-26 22:33N 51°04' E 001°48'0 0.0
2015-Aug-26 21:33N 51°04' E 001°48'0 0.0
2015-Aug-26 20:33N 51°04' E 001°48'0 0.0
2015-Aug-26 19:33N 51°04' E 001°48'0 0.0
2015-Aug-26 18:33N 51°04' E 001°48'0 0.0
2015-Aug-26 17:33N 51°04' E 001°48'0 0.0
2015-Aug-26 16:33N 51°04' E 001°48'0 0.1
2015-Aug-26 15:33N 51°04' E 001°48'0 0.1
2015-Aug-26 14:33N 51°04' E 001°48'0 0.0
2015-Aug-26 13:33N 51°04' E 001°48'0 0.0
2015-Aug-26 12:33N 51°04' E 001°48'0 0.0
2015-Aug-26 11:33N 51°04' E 001°48'0 0.0
2015-Aug-26 10:33N 51°04' E 001°48'0 0.0
2015-Aug-26 09:33N 51°04' E 001°48'0 0.0
2015-Aug-26 08:33N 51°04' E 001°48'0 0.0
2015-Aug-26 07:33N 51°04' E 001°48'0 0.0
2015-Aug-26 06:33N 51°04' E 001°48'0 0.0
2015-Aug-26 05:33N 51°04' E 001°48'0 0.0
2015-Aug-26 04:33N 51°04' E 001°48'0 0.0
2015-Aug-26 03:33N 51°04' E 001°48'0 0.0
2015-Aug-26 02:33N 51°04' E 001°48'0 0.0
2015-Aug-26 01:33N 51°04' E 001°48'0 0.0
2015-Aug-26 00:33N 51°04' E 001°48'0 0.0
2015-Aug-25 23:33N 51°04' E 001°48'0 0.0
2015-Aug-25 22:33N 51°04' E 001°48'0 0.0
2015-Aug-25 21:34N 51°04' E 001°48'0 0.0
2015-Aug-25 20:33N 51°04' E 001°48'0 0.0
2015-Aug-25 19:33N 51°04' E 001°48'0 0.0
2015-Aug-25 18:33N 51°04' E 001°48'0 0.0
2015-Aug-25 17:33N 51°04' E 001°48'0 0.0
2015-Aug-25 16:33N 51°04' E 001°47'0 0.1
2015-Aug-25 15:33N 51°04' E 001°47'0 0.1
2015-Aug-25 14:33N 51°04' E 001°47'0 0.1
2015-Aug-25 13:33N 51°04' E 001°47'0 0.0
2015-Aug-25 12:33N 51°04' E 001°47'0 0.0
2015-Aug-25 11:33N 51°04' E 001°47'0 0.0
2015-Aug-25 10:33N 51°04' E 001°48'0 0.0
2015-Aug-25 09:33N 51°04' E 001°47'0 0.0
2015-Aug-25 08:33N 51°04' E 001°48'0 0.0
2015-Aug-25 07:33N 51°04' E 001°48'0 0.0
2015-Aug-25 06:34N 51°04' E 001°48'0 0.0
2015-Aug-25 05:33N 51°04' E 001°48'0 0.0
2015-Aug-25 04:33N 51°04' E 001°48'0 0.0
2015-Aug-25 03:33N 51°04' E 001°48'0 0.0
2015-Aug-25 02:33N 51°04' E 001°48'0 0.0
2015-Aug-25 01:33N 51°04' E 001°48'0 0.0
2015-Aug-25 00:33N 51°04' E 001°48'0 0.0
2015-Aug-24 23:33N 51°04' E 001°47'0 0.0
2015-Aug-24 22:33N 51°04' E 001°48'0 0.0
2015-Aug-24 21:33N 51°04' E 001°48'0 0.0
2015-Aug-24 20:33N 51°04' E 001°47'0 0.1
2015-Aug-24 19:33N 51°04' E 001°47'0 0.0
2015-Aug-24 18:33N 51°04' E 001°47'0 0.0
2015-Aug-24 17:33N 51°04' E 001°47'0 0.0
2015-Aug-24 16:33N 51°04' E 001°47'0 0.1
2015-Aug-24 15:33N 51°04' E 001°47'0 0.1
2015-Aug-24 14:33N 51°04' E 001°47'0 0.0
2015-Aug-24 13:33N 51°04' E 001°47'0 0.0
2015-Aug-24 12:33N 51°04' E 001°47'0 0.0
2015-Aug-24 11:33N 51°04' E 001°47'0 0.0
2015-Aug-24 10:33N 51°04' E 001°47'0 0.0
2015-Aug-24 09:33N 51°04' E 001°47'0 0.1
2015-Aug-24 08:33N 51°04' E 001°47'0 0.0
2015-Aug-24 07:33N 51°04' E 001°47'0 0.0
2015-Aug-24 06:33N 51°04' E 001°47'0 0.0
2015-Aug-24 05:33N 51°04' E 001°47'0 0.0
2015-Aug-24 04:33N 51°04' E 001°47'0 0.1
2015-Aug-24 03:33N 51°04' E 001°47'0 0.1
2015-Aug-24 02:33N 51°04' E 001°47'0 0.0
2015-Aug-24 01:33N 51°04' E 001°47'0 0.0
2015-Aug-24 00:33N 51°04' E 001°47'0 0.0
2015-Aug-23 23:33N 51°04' E 001°47'0 0.2
2015-Aug-23 22:33N 51°04' E 001°47'0 0.1
2015-Aug-23 21:34N 51°04' E 001°47'0 0.0
2015-Aug-23 20:33N 51°04' E 001°47'0 0.0
2015-Aug-23 19:34N 51°04' E 001°47'0 0.0
2015-Aug-23 18:33N 51°04' E 001°47'0 0.0
2015-Aug-23 17:33N 51°04' E 001°47'0 0.0
2015-Aug-23 16:33N 51°04' E 001°47'0 0.0
2015-Aug-23 15:33N 51°04' E 001°47'0 0.0
2015-Aug-23 14:33N 51°04' E 001°47'0 0.2
2015-Aug-23 13:33N 51°04' E 001°47'0 0.0
2015-Aug-23 12:33N 51°04' E 001°47'0 0.0
2015-Aug-23 11:33N 51°04' E 001°47'0 0.0
2015-Aug-23 10:33N 51°04' E 001°47'0 0.0
2015-Aug-23 09:33N 51°04' E 001°47'0 0.0
2015-Aug-23 08:34N 51°04' E 001°47'0 0.0
2015-Aug-23 07:33N 51°04' E 001°47'0 0.1
2015-Aug-23 06:33N 51°04' E 001°47'0 0.0
2015-Aug-23 05:33N 51°04' E 001°47'0 0.0
2015-Aug-23 04:33N 51°04' E 001°47'0 0.0
2015-Aug-23 03:33N 51°04' E 001°47'0 0.1
2015-Aug-23 02:33N 51°04' E 001°47'0 0.1
2015-Aug-23 01:33N 51°04' E 001°47'0 0.0
2015-Aug-23 00:33N 51°04' E 001°47'0 0.0
2015-Aug-22 23:33N 51°04' E 001°47'0 0.0
2015-Aug-22 22:33N 51°04' E 001°47'0 0.0
2015-Aug-22 21:33N 51°04' E 001°47'0 0.0
2015-Aug-22 20:33N 51°04' E 001°47'0 0.1
2015-Aug-22 19:33N 51°04' E 001°47'0 0.1
2015-Aug-22 18:33N 51°04' E 001°47'0 0.0
2015-Aug-22 17:33N 51°04' E 001°47'0 0.0
2015-Aug-22 16:33N 51°04' E 001°47'0 0.0
2015-Aug-22 15:33N 51°04' E 001°47'0 0.1
2015-Aug-22 14:33N 51°04' E 001°47'0 0.1
2015-Aug-22 13:33N 51°04' E 001°47'0 0.0
2015-Aug-22 12:33N 51°04' E 001°47'0 0.0
2015-Aug-22 11:33N 51°04' E 001°47'0 0.0
2015-Aug-22 10:33N 51°04' E 001°47'0 0.0
2015-Aug-22 09:34N 51°04' E 001°47'0 0.0
2015-Aug-22 08:33N 51°04' E 001°47'0 0.0
2015-Aug-22 07:33N 51°04' E 001°47'0 0.1
2015-Aug-22 06:33N 51°04' E 001°47'0 0.0
2015-Aug-22 05:33N 51°04' E 001°47'0 0.0
2015-Aug-22 04:33N 51°04' E 001°47'0 0.0
2015-Aug-22 03:33N 51°04' E 001°47'0 0.0
2015-Aug-22 02:33N 51°04' E 001°47'0 0.1
2015-Aug-22 01:33N 51°04' E 001°47'0 0.1
2015-Aug-22 00:33N 51°04' E 001°47'0 0.0
2015-Aug-21 23:33N 51°04' E 001°47'0 0.0
2015-Aug-21 22:33N 51°04' E 001°47'0 0.0
2015-Aug-21 21:33N 51°04' E 001°47'0 0.0
2015-Aug-21 20:33N 51°04' E 001°47'0 0.0
2015-Aug-21 19:34N 51°04' E 001°47'0 0.1
2015-Aug-21 18:33N 51°04' E 001°47'0 0.0
2015-Aug-21 17:33N 51°04' E 001°47'0 0.0
2015-Aug-21 16:33N 51°04' E 001°47'  

Dump ship's entire track history